sensor_id;sensor_type;location;lat;lon;timestamp;temperature;humidity
5492;DHT22;2768;53.540;10.224;2023-06-22T00:02:20;20.90;99.90
5492;DHT22;2768;53.540;10.224;2023-06-22T00:08:13;20.50;99.90
5492;DHT22;2768;53.540;10.224;2023-06-22T00:14:07;20.30;99.90
5492;DHT22;2768;53.540;10.224;2023-06-22T00:20:02;20.20;99.90
5492;DHT22;2768;53.540;10.224;2023-06-22T00:26:00;20.30;99.90
5492;DHT22;2768;53.540;10.224;2023-06-22T00:31:53;20.00;99.90
5492;DHT22;2768;53.540;10.224;2023-06-22T00:37:48;20.00;99.90
5492;DHT22;2768;53.540;10.224;2023-06-22T00:43:45;20.00;99.90
5492;DHT22;2768;53.540;10.224;2023-06-22T00:49:38;20.00;99.90
5492;DHT22;2768;53.540;10.224;2023-06-22T00:55:33;19.80;99.90
5492;DHT22;2768;53.540;10.224;2023-06-22T01:01:29;20.00;99.90
5492;DHT22;2768;53.540;10.224;2023-06-22T01:07:36;19.80;99.90
5492;DHT22;2768;53.540;10.224;2023-06-22T01:13:37;19.80;99.90
5492;DHT22;2768;53.540;10.224;2023-06-22T01:19:43;20.00;99.90
5492;DHT22;2768;53.540;10.224;2023-06-22T01:25:46;19.90;99.90
5492;DHT22;2768;53.540;10.224;2023-06-22T01:31:44;19.90;99.90
5492;DHT22;2768;53.540;10.224;2023-06-22T01:37:38;20.10;99.90
5492;DHT22;2768;53.540;10.224;2023-06-22T01:43:32;19.80;99.90
5492;DHT22;2768;53.540;10.224;2023-06-22T01:56:52;19.70;99.90
5492;DHT22;2768;53.540;10.224;2023-06-22T02:02:55;19.50;99.90
5492;DHT22;2768;53.540;10.224;2023-06-22T02:08:54;19.40;99.90
5492;DHT22;2768;53.540;10.224;2023-06-22T02:14:50;19.50;99.90
5492;DHT22;2768;53.540;10.224;2023-06-22T02:20:43;19.50;99.90
5492;DHT22;2768;53.540;10.224;2023-06-22T02:26:37;19.40;99.90
5492;DHT22;2768;53.540;10.224;2023-06-22T02:32:33;19.60;99.90
5492;DHT22;2768;53.540;10.224;2023-06-22T02:38:27;19.60;99.90
5492;DHT22;2768;53.540;10.224;2023-06-22T02:44:25;19.50;99.90
5492;DHT22;2768;53.540;10.224;2023-06-22T02:50:19;19.70;99.90
5492;DHT22;2768;53.540;10.224;2023-06-22T02:56:12;19.40;99.90
5492;DHT22;2768;53.540;10.224;2023-06-22T03:02:06;19.70;99.90
5492;DHT22;2768;53.540;10.224;2023-06-22T03:08:00;20.00;99.90
5492;DHT22;2768;53.540;10.224;2023-06-22T03:13:57;20.00;99.90
5492;DHT22;2768;53.540;10.224;2023-06-22T03:19:50;19.90;99.90
5492;DHT22;2768;53.540;10.224;2023-06-22T03:25:44;19.90;99.90
5492;DHT22;2768;53.540;10.224;2023-06-22T03:31:38;19.30;99.90
5492;DHT22;2768;53.540;10.224;2023-06-22T03:37:31;19.10;99.90
5492;DHT22;2768;53.540;10.224;2023-06-22T03:43:26;19.10;99.90
5492;DHT22;2768;53.540;10.224;2023-06-22T03:49:20;19.00;99.90
5492;DHT22;2768;53.540;10.224;2023-06-22T03:55:14;19.20;99.90
5492;DHT22;2768;53.540;10.224;2023-06-22T04:01:08;19.00;99.90
5492;DHT22;2768;53.540;10.224;2023-06-22T04:07:03;19.30;99.90
5492;DHT22;2768;53.540;10.224;2023-06-22T04:12:57;19.50;99.90
5492;DHT22;2768;53.540;10.224;2023-06-22T04:18:51;19.70;99.90
5492;DHT22;2768;53.540;10.224;2023-06-22T04:24:44;19.70;99.90
5492;DHT22;2768;53.540;10.224;2023-06-22T04:30:38;19.20;99.90
5492;DHT22;2768;53.540;10.224;2023-06-22T04:36:40;19.50;99.90
5492;DHT22;2768;53.540;10.224;2023-06-22T04:42:34;19.50;99.90
5492;DHT22;2768;53.540;10.224;2023-06-22T04:48:28;19.60;99.90
5492;DHT22;2768;53.540;10.224;2023-06-22T04:54:25;19.30;99.90
5492;DHT22;2768;53.540;10.224;2023-06-22T05:00:19;19.40;99.90
5492;DHT22;2768;53.540;10.224;2023-06-22T05:06:15;19.60;99.90
5492;DHT22;2768;53.540;10.224;2023-06-22T05:12:11;19.70;99.90
5492;DHT22;2768;53.540;10.224;2023-06-22T05:18:04;19.70;99.90
5492;DHT22;2768;53.540;10.224;2023-06-22T05:23:58;19.70;99.90
5492;DHT22;2768;53.540;10.224;2023-06-22T05:29:53;19.60;99.90
5492;DHT22;2768;53.540;10.224;2023-06-22T05:36:04;20.00;99.90
5492;DHT22;2768;53.540;10.224;2023-06-22T05:41:58;20.10;99.90
5492;DHT22;2768;53.540;10.224;2023-06-22T05:47:52;20.20;99.90
5492;DHT22;2768;53.540;10.224;2023-06-22T05:53:45;20.40;99.90
5492;DHT22;2768;53.540;10.224;2023-06-22T05:59:41;20.40;99.90
5492;DHT22;2768;53.540;10.224;2023-06-22T06:05:36;20.40;99.90
5492;DHT22;2768;53.540;10.224;2023-06-22T06:11:30;20.50;99.90
5492;DHT22;2768;53.540;10.224;2023-06-22T06:17:23;20.60;99.90
5492;DHT22;2768;53.540;10.224;2023-06-22T06:23:19;20.70;99.90
5492;DHT22;2768;53.540;10.224;2023-06-22T06:29:12;20.70;99.90
5492;DHT22;2768;53.540;10.224;2023-06-22T06:35:09;20.90;99.90
5492;DHT22;2768;53.540;10.224;2023-06-22T06:41:04;21.10;99.90
5492;DHT22;2768;53.540;10.224;2023-06-22T06:46:57;21.20;99.90
5492;DHT22;2768;53.540;10.224;2023-06-22T06:52:50;21.20;99.90
5492;DHT22;2768;53.540;10.224;2023-06-22T06:58:45;21.50;99.90
5492;DHT22;2768;53.540;10.224;2023-06-22T07:04:38;21.60;99.90
5492;DHT22;2768;53.540;10.224;2023-06-22T07:10:31;21.70;99.90
5492;DHT22;2768;53.540;10.224;2023-06-22T07:16:26;21.90;99.90
5492;DHT22;2768;53.540;10.224;2023-06-22T07:22:19;21.80;99.90
5492;DHT22;2768;53.540;10.224;2023-06-22T07:28:12;21.80;98.30
5492;DHT22;2768;53.540;10.224;2023-06-22T07:34:07;21.90;99.90
5492;DHT22;2768;53.540;10.224;2023-06-22T07:40:00;22.00;97.00
5492;DHT22;2768;53.540;10.224;2023-06-22T07:45:57;22.10;98.10
5492;DHT22;2768;53.540;10.224;2023-06-22T07:51:52;22.30;95.50
5492;DHT22;2768;53.540;10.224;2023-06-22T07:57:48;22.40;87.80
5492;DHT22;2768;53.540;10.224;2023-06-22T08:03:43;22.50;87.30
5492;DHT22;2768;53.540;10.224;2023-06-22T08:09:38;22.50;83.50
5492;DHT22;2768;53.540;10.224;2023-06-22T08:15:32;22.60;83.70
5492;DHT22;2768;53.540;10.224;2023-06-22T08:21:25;22.70;79.80
5492;DHT22;2768;53.540;10.224;2023-06-22T08:27:19;22.80;91.50
5492;DHT22;2768;53.540;10.224;2023-06-22T08:33:15;22.80;77.00
5492;DHT22;2768;53.540;10.224;2023-06-22T08:39:19;22.90;60.20
5492;DHT22;2768;53.540;10.224;2023-06-22T08:45:15;23.00;50.70
5492;DHT22;2768;53.540;10.224;2023-06-22T08:51:08;23.10;20.30
5492;DHT22;2768;53.540;10.224;2023-06-22T08:57:02;23.20;4.60
5492;DHT22;2768;53.540;10.224;2023-06-22T09:02:57;23.50;9.20
5492;DHT22;2768;53.540;10.224;2023-06-22T09:08:51;23.50;1.00
5492;DHT22;2768;53.540;10.224;2023-06-22T09:14:44;23.50;1.60
5492;DHT22;2768;53.540;10.224;2023-06-22T09:20:39;23.60;16.50
5492;DHT22;2768;53.540;10.224;2023-06-22T09:26:32;23.60;16.50
5492;DHT22;2768;53.540;10.224;2023-06-22T09:32:25;23.80;21.00
5492;DHT22;2768;53.540;10.224;2023-06-22T09:38:20;23.80;16.70
5492;DHT22;2768;53.540;10.224;2023-06-22T09:44:13;23.90;16.70
5492;DHT22;2768;53.540;10.224;2023-06-22T09:50:07;24.10;16.90
5492;DHT22;2768;53.540;10.224;2023-06-22T09:56:02;24.30;13.40
5492;DHT22;2768;53.540;10.224;2023-06-22T10:01:55;24.40;13.70
5492;DHT22;2768;53.540;10.224;2023-06-22T10:07:48;24.70;13.40
5492;DHT22;2768;53.540;10.224;2023-06-22T10:13:42;25.00;15.70
5492;DHT22;2768;53.540;10.224;2023-06-22T10:19:36;25.10;11.50
5492;DHT22;2768;53.540;10.224;2023-06-22T10:25:30;25.40;5.70
5492;DHT22;2768;53.540;10.224;2023-06-22T10:31:25;25.40;1.00
5492;DHT22;2768;53.540;10.224;2023-06-22T10:37:19;25.70;1.00
5492;DHT22;2768;53.540;10.224;2023-06-22T10:43:12;25.70;1.00
5492;DHT22;2768;53.540;10.224;2023-06-22T10:49:07;25.60;1.00
5492;DHT22;2768;53.540;10.224;2023-06-22T10:55:00;25.50;1.00
5492;DHT22;2768;53.540;10.224;2023-06-22T11:00:53;25.30;1.00
5492;DHT22;2768;53.540;10.224;2023-06-22T11:06:48;25.40;1.00
5492;DHT22;2768;53.540;10.224;2023-06-22T11:12:42;25.70;1.00
5492;DHT22;2768;53.540;10.224;2023-06-22T11:18:35;26.20;1.00
5492;DHT22;2768;53.540;10.224;2023-06-22T11:24:30;26.30;1.00
5492;DHT22;2768;53.540;10.224;2023-06-22T11:30:23;26.60;1.00
5492;DHT22;2768;53.540;10.224;2023-06-22T11:36:19;26.40;1.00
5492;DHT22;2768;53.540;10.224;2023-06-22T11:42:14;26.30;1.00
5492;DHT22;2768;53.540;10.224;2023-06-22T11:48:08;26.20;1.00
5492;DHT22;2768;53.540;10.224;2023-06-22T11:54:01;26.30;1.00
5492;DHT22;2768;53.540;10.224;2023-06-22T11:59:56;26.40;1.00
5492;DHT22;2768;53.540;10.224;2023-06-22T12:05:50;26.40;1.00
5492;DHT22;2768;53.540;10.224;2023-06-22T12:11:44;26.50;1.00
5492;DHT22;2768;53.540;10.224;2023-06-22T12:17:39;26.80;1.00
5492;DHT22;2768;53.540;10.224;2023-06-22T12:23:33;26.70;1.00
5492;DHT22;2768;53.540;10.224;2023-06-22T12:29:26;26.80;1.00
5492;DHT22;2768;53.540;10.224;2023-06-22T12:35:21;26.80;1.00
5492;DHT22;2768;53.540;10.224;2023-06-22T12:41:14;26.80;1.00
5492;DHT22;2768;53.540;10.224;2023-06-22T12:47:08;26.80;1.00
5492;DHT22;2768;53.540;10.224;2023-06-22T12:53:03;26.70;1.00
5492;DHT22;2768;53.540;10.224;2023-06-22T12:58:58;26.50;1.00
5492;DHT22;2768;53.540;10.224;2023-06-22T13:04:54;26.30;1.00
5492;DHT22;2768;53.540;10.224;2023-06-22T13:10:48;26.30;1.00
5492;DHT22;2768;53.540;10.224;2023-06-22T13:16:42;26.30;1.00
5492;DHT22;2768;53.540;10.224;2023-06-22T13:22:36;26.30;1.00
5492;DHT22;2768;53.540;10.224;2023-06-22T13:28:33;26.20;1.00
5492;DHT22;2768;53.540;10.224;2023-06-22T13:34:27;26.10;1.00
5492;DHT22;2768;53.540;10.224;2023-06-22T13:40:38;26.00;1.00
5492;DHT22;2768;53.540;10.224;2023-06-22T13:46:50;26.00;1.00
5492;DHT22;2768;53.540;10.224;2023-06-22T13:53:01;26.00;1.00
5492;DHT22;2768;53.540;10.224;2023-06-22T13:58:55;25.90;1.00
5492;DHT22;2768;53.540;10.224;2023-06-22T14:04:49;25.90;1.00
5492;DHT22;2768;53.540;10.224;2023-06-22T14:10:42;25.90;1.00
5492;DHT22;2768;53.540;10.224;2023-06-22T14:16:35;25.90;1.00
5492;DHT22;2768;53.540;10.224;2023-06-22T14:22:30;25.80;1.00
5492;DHT22;2768;53.540;10.224;2023-06-22T14:28:23;25.70;1.00
5492;DHT22;2768;53.540;10.224;2023-06-22T14:34:16;25.60;1.00
5492;DHT22;2768;53.540;10.224;2023-06-22T14:40:12;25.60;1.00
5492;DHT22;2768;53.540;10.224;2023-06-22T14:46:06;25.50;1.00
5492;DHT22;2768;53.540;10.224;2023-06-22T14:51:59;25.60;1.00
5492;DHT22;2768;53.540;10.224;2023-06-22T14:57:54;25.60;1.00
5492;DHT22;2768;53.540;10.224;2023-06-22T15:03:48;25.60;1.00
5492;DHT22;2768;53.540;10.224;2023-06-22T15:09:41;25.60;1.00
5492;DHT22;2768;53.540;10.224;2023-06-22T15:15:38;25.60;1.00
5492;DHT22;2768;53.540;10.224;2023-06-22T15:21:31;25.50;1.00
5492;DHT22;2768;53.540;10.224;2023-06-22T15:27:25;25.50;1.00
5492;DHT22;2768;53.540;10.224;2023-06-22T15:33:20;25.50;1.00
5492;DHT22;2768;53.540;10.224;2023-06-22T15:39:13;25.50;1.00
5492;DHT22;2768;53.540;10.224;2023-06-22T15:45:07;25.40;1.00
5492;DHT22;2768;53.540;10.224;2023-06-22T15:51:02;25.40;1.00
5492;DHT22;2768;53.540;10.224;2023-06-22T15:56:56;25.40;1.40
5492;DHT22;2768;53.540;10.224;2023-06-22T16:02:49;25.30;2.80
5492;DHT22;2768;53.540;10.224;2023-06-22T16:08:44;25.30;2.20
5492;DHT22;2768;53.540;10.224;2023-06-22T16:14:37;25.20;3.90
5492;DHT22;2768;53.540;10.224;2023-06-22T16:20:32;25.20;1.00
5492;DHT22;2768;53.540;10.224;2023-06-22T16:26:30;25.20;1.00
5492;DHT22;2768;53.540;10.224;2023-06-22T16:32:24;25.20;1.00
5492;DHT22;2768;53.540;10.224;2023-06-22T16:38:17;25.10;1.00
5492;DHT22;2768;53.540;10.224;2023-06-22T16:44:12;25.00;1.00
5492;DHT22;2768;53.540;10.224;2023-06-22T16:50:05;25.00;1.00
5492;DHT22;2768;53.540;10.224;2023-06-22T16:55:59;24.80;1.00
5492;DHT22;2768;53.540;10.224;2023-06-22T17:01:56;24.80;1.00
5492;DHT22;2768;53.540;10.224;2023-06-22T17:07:52;24.80;1.00
5492;DHT22;2768;53.540;10.224;2023-06-22T17:13:46;24.80;1.00
5492;DHT22;2768;53.540;10.224;2023-06-22T17:19:43;24.80;1.00
5492;DHT22;2768;53.540;10.224;2023-06-22T17:25:37;24.60;1.00
5492;DHT22;2768;53.540;10.224;2023-06-22T17:31:36;24.60;1.00
5492;DHT22;2768;53.540;10.224;2023-06-22T17:37:38;24.40;1.00
5492;DHT22;2768;53.540;10.224;2023-06-22T17:43:48;24.40;1.00
5492;DHT22;2768;53.540;10.224;2023-06-22T17:49:41;24.40;1.00
5492;DHT22;2768;53.540;10.224;2023-06-22T17:55:36;24.40;1.00
5492;DHT22;2768;53.540;10.224;2023-06-22T18:01:31;24.20;1.00
5492;DHT22;2768;53.540;10.224;2023-06-22T18:07:26;24.20;1.00
5492;DHT22;2768;53.540;10.224;2023-06-22T18:13:23;24.10;1.00
5492;DHT22;2768;53.540;10.224;2023-06-22T18:19:18;24.00;1.00
5492;DHT22;2768;53.540;10.224;2023-06-22T18:25:12;23.90;1.00
5492;DHT22;2768;53.540;10.224;2023-06-22T18:31:09;23.90;1.00
5492;DHT22;2768;53.540;10.224;2023-06-22T18:37:06;23.80;1.00
5492;DHT22;2768;53.540;10.224;2023-06-22T18:43:01;23.70;1.00
5492;DHT22;2768;53.540;10.224;2023-06-22T18:49:00;23.60;1.00
5492;DHT22;2768;53.540;10.224;2023-06-22T18:54:55;23.60;1.00
5492;DHT22;2768;53.540;10.224;2023-06-22T19:00:50;23.60;1.00
5492;DHT22;2768;53.540;10.224;2023-06-22T19:06:58;23.60;1.00
5492;DHT22;2768;53.540;10.224;2023-06-22T19:12:53;23.50;1.00
5492;DHT22;2768;53.540;10.224;2023-06-22T19:18:48;23.50;1.00
5492;DHT22;2768;53.540;10.224;2023-06-22T19:24:49;23.40;1.00
5492;DHT22;2768;53.540;10.224;2023-06-22T19:30:44;23.40;1.00
5492;DHT22;2768;53.540;10.224;2023-06-22T19:36:38;23.40;1.00
5492;DHT22;2768;53.540;10.224;2023-06-22T19:42:32;23.30;1.00
5492;DHT22;2768;53.540;10.224;2023-06-22T19:48:27;23.30;1.00
5492;DHT22;2768;53.540;10.224;2023-06-22T19:54:22;23.20;1.00
5492;DHT22;2768;53.540;10.224;2023-06-22T20:00:20;23.20;1.00
5492;DHT22;2768;53.540;10.224;2023-06-22T20:06:16;23.10;1.00
5492;DHT22;2768;53.540;10.224;2023-06-22T20:12:12;23.10;1.00
5492;DHT22;2768;53.540;10.224;2023-06-22T20:18:16;23.20;1.00
5492;DHT22;2768;53.540;10.224;2023-06-22T20:24:11;23.00;1.00
5492;DHT22;2768;53.540;10.224;2023-06-22T20:30:13;23.00;1.00
5492;DHT22;2768;53.540;10.224;2023-06-22T20:36:08;22.80;1.00
5492;DHT22;2768;53.540;10.224;2023-06-22T20:42:02;22.70;1.00
5492;DHT22;2768;53.540;10.224;2023-06-22T20:47:58;22.10;2.20
5492;DHT22;2768;53.540;10.224;2023-06-22T20:53:53;22.00;69.70
5492;DHT22;2768;53.540;10.224;2023-06-22T20:59:47;21.60;97.50
5492;DHT22;2768;53.540;10.224;2023-06-22T21:05:40;21.50;99.90
5492;DHT22;2768;53.540;10.224;2023-06-22T21:11:36;21.40;99.90
5492;DHT22;2768;53.540;10.224;2023-06-22T21:17:29;21.00;99.90
5492;DHT22;2768;53.540;10.224;2023-06-22T21:23:23;21.50;99.90
5492;DHT22;2768;53.540;10.224;2023-06-22T21:29:18;20.80;99.90
5492;DHT22;2768;53.540;10.224;2023-06-22T21:35:11;20.80;99.90
5492;DHT22;2768;53.540;10.224;2023-06-22T21:41:06;21.00;99.90
5492;DHT22;2768;53.540;10.224;2023-06-22T21:47:01;20.90;99.90
5492;DHT22;2768;53.540;10.224;2023-06-22T21:52:54;21.10;99.90
5492;DHT22;2768;53.540;10.224;2023-06-22T21:58:48;20.40;99.90
5492;DHT22;2768;53.540;10.224;2023-06-22T22:04:43;20.20;99.90
5492;DHT22;2768;53.540;10.224;2023-06-22T22:10:36;20.40;99.90
5492;DHT22;2768;53.540;10.224;2023-06-22T22:16:30;20.40;99.90
5492;DHT22;2768;53.540;10.224;2023-06-22T22:22:25;20.10;99.90
5492;DHT22;2768;53.540;10.224;2023-06-22T22:28:19;20.30;99.90
5492;DHT22;2768;53.540;10.224;2023-06-22T22:34:12;20.20;99.90
5492;DHT22;2768;53.540;10.224;2023-06-22T22:40:08;20.40;99.90
5492;DHT22;2768;53.540;10.224;2023-06-22T22:46:02;20.50;99.90
5492;DHT22;2768;53.540;10.224;2023-06-22T22:51:56;20.60;99.90
5492;DHT22;2768;53.540;10.224;2023-06-22T22:57:50;20.50;99.90
5492;DHT22;2768;53.540;10.224;2023-06-22T23:03:45;20.60;99.90
5492;DHT22;2768;53.540;10.224;2023-06-22T23:09:39;20.80;99.90
5492;DHT22;2768;53.540;10.224;2023-06-22T23:15:34;20.70;99.90
5492;DHT22;2768;53.540;10.224;2023-06-22T23:21:28;20.80;99.90
5492;DHT22;2768;53.540;10.224;2023-06-22T23:27:22;20.70;99.90
5492;DHT22;2768;53.540;10.224;2023-06-22T23:33:17;20.70;99.90
5492;DHT22;2768;53.540;10.224;2023-06-22T23:39:10;20.60;99.90
5492;DHT22;2768;53.540;10.224;2023-06-22T23:45:06;20.40;99.90
5492;DHT22;2768;53.540;10.224;2023-06-22T23:51:01;20.30;99.90
5492;DHT22;2768;53.540;10.224;2023-06-22T23:56:55;20.20;99.90
